createdAt,value
2022-09-28T00:02:22.043Z,84.56
2022-09-28T00:04:52.274Z,84.66
2022-09-28T00:07:25.039Z,84.50
2022-09-28T00:09:55.254Z,84.69
2022-09-28T00:12:28.361Z,84.64
2022-09-28T00:14:58.595Z,84.24
2022-09-28T00:17:29.046Z,84.82
2022-09-28T00:19:59.661Z,84.52
2022-09-28T00:22:32.401Z,84.09
2022-09-28T00:25:02.799Z,84.43
2022-09-28T00:27:32.897Z,84.65
2022-09-28T00:30:03.184Z,84.33
2022-09-28T00:32:34.813Z,84.09
2022-09-28T00:35:04.962Z,83.82
2022-09-28T00:37:37.680Z,84.41
2022-09-28T00:40:09.032Z,84.03
2022-09-28T00:42:43.069Z,84.16
2022-09-28T00:45:13.189Z,84.35
2022-09-28T00:47:54.226Z,84.33
2022-09-28T00:50:29.748Z,84.74
2022-09-28T00:53:08.023Z,84.76
2022-09-28T00:55:43.089Z,84.75
2022-09-28T00:58:19.686Z,84.80
2022-09-28T01:00:50.214Z,84.73
2022-09-28T01:03:20.805Z,85.30
2022-09-28T01:05:54.538Z,85.30
2022-09-28T01:08:29.399Z,85.50
2022-09-28T01:11:00.590Z,84.95
2022-09-28T01:13:34.095Z,84.36
2022-09-28T01:16:14.476Z,83.60
2022-09-28T01:18:53.882Z,83.90
2022-09-28T01:21:25.510Z,84.22
2022-09-28T01:24:34.028Z,83.68
2022-09-28T01:27:16.183Z,84.43
2022-09-28T01:29:55.546Z,83.93
2022-09-28T01:32:39.659Z,84.40
2022-09-28T01:35:12.988Z,84.50
2022-09-28T01:37:52.088Z,84.45
2022-09-28T01:40:25.897Z,84.18
2022-09-28T01:43:05.231Z,84.82
2022-09-28T01:45:44.133Z,84.61
2022-09-28T01:48:20.549Z,84.70
2022-09-28T01:50:55.442Z,84.63
2022-09-28T01:53:33.306Z,84.74
2022-09-28T01:56:08.202Z,85.32
2022-09-28T01:58:47.103Z,85.20
2022-09-28T02:01:26.338Z,84.92
2022-09-28T02:04:03.513Z,84.94
2022-09-28T02:06:40.683Z,84.68
2022-09-28T02:09:16.481Z,84.57
2022-09-28T02:11:52.061Z,84.27
2022-09-28T02:14:27.817Z,84.81
2022-09-28T02:17:02.212Z,84.33
2022-09-28T02:19:34.576Z,84.27
2022-09-28T02:22:14.803Z,84.44
2022-09-28T02:24:52.920Z,84.61
2022-09-28T02:27:32.692Z,84.12
2022-09-28T02:30:06.804Z,83.97
2022-09-28T02:32:42.760Z,83.15
2022-09-28T02:35:16.048Z,82.48
2022-09-28T02:37:47.445Z,82.31
2022-09-28T02:40:19.496Z,82.47
2022-09-28T02:42:59.622Z,82.48
2022-09-28T02:45:43.888Z,82.69
2022-09-28T02:48:42.781Z,82.40
2022-09-28T02:51:24.078Z,82.07
2022-09-28T02:54:17.998Z,81.68
2022-09-28T02:57:01.944Z,81.89
2022-09-28T02:59:47.807Z,80.93
2022-09-28T03:02:29.211Z,81.13
2022-09-28T03:05:15.991Z,81.29
2022-09-28T03:07:52.979Z,81.32
2022-09-28T03:10:28.585Z,80.93
2022-09-28T03:12:59.515Z,81.37
2022-09-28T03:15:31.661Z,81.23
2022-09-28T03:18:04.908Z,81.21
2022-09-28T03:20:36.378Z,81.41
2022-09-28T03:23:23.832Z,80.86
2022-09-28T03:25:56.231Z,80.40
2022-09-28T03:28:26.681Z,79.93
2022-09-28T03:30:57.159Z,80.00
2022-09-28T03:33:32.633Z,80.03
2022-09-28T03:36:02.884Z,79.54
2022-09-28T03:38:33.015Z,78.92
2022-09-28T03:41:04.146Z,79.07
2022-09-28T03:43:34.676Z,78.87
2022-09-28T03:46:05.336Z,78.84
2022-09-28T03:48:39.287Z,79.00
2022-09-28T03:51:14.324Z,78.70
2022-09-28T03:53:44.523Z,78.80
2022-09-28T03:56:17.587Z,78.33
2022-09-28T03:58:47.838Z,78.43
2022-09-28T04:01:18.940Z,78.11
2022-09-28T04:03:57.220Z,78.39
2022-09-28T04:06:29.075Z,78.00
2022-09-28T04:08:59.303Z,77.86
2022-09-28T04:11:38.475Z,77.92
2022-09-28T04:14:17.883Z,77.61
2022-09-28T04:16:48.392Z,77.83
2022-09-28T04:19:21.571Z,77.78
2022-09-28T04:21:54.616Z,77.30
2022-09-28T04:24:24.859Z,77.20
2022-09-28T04:27:15.053Z,76.35
2022-09-28T04:29:44.311Z,76.34
2022-09-28T04:32:14.806Z,76.68
2022-09-28T04:34:50.595Z,76.28
2022-09-28T04:37:20.700Z,77.22
2022-09-28T04:39:50.972Z,76.99
2022-09-28T04:42:21.154Z,77.47
2022-09-28T04:44:51.358Z,77.26
2022-09-28T04:47:21.802Z,76.99
2022-09-28T04:49:54.583Z,77.00
2022-09-28T04:52:24.738Z,76.83
2022-09-28T04:54:55.064Z,76.96
2022-09-28T04:57:25.240Z,76.80
2022-09-28T04:59:55.504Z,76.84
2022-09-28T05:02:25.712Z,76.81
2022-09-28T05:04:59.084Z,76.72
2022-09-28T05:07:29.811Z,76.62
2022-09-28T05:10:00.755Z,76.81
2022-09-28T05:12:30.893Z,77.18
2022-09-28T05:15:04.029Z,76.72
2022-09-28T05:17:36.480Z,77.12
2022-09-28T05:20:14.733Z,76.96
2022-09-28T05:22:44.842Z,76.79
2022-09-28T05:25:15.069Z,76.96
2022-09-28T05:27:45.448Z,77.50
2022-09-28T05:30:16.097Z,77.15
2022-09-28T05:32:47.027Z,77.47
2022-09-28T05:35:20.106Z,77.60
2022-09-28T05:37:50.453Z,77.16
2022-09-28T05:40:20.831Z,77.06
2022-09-28T05:42:51.215Z,76.79
2022-09-28T05:45:21.401Z,77.33
2022-09-28T05:47:51.480Z,77.05
2022-09-28T05:50:24.779Z,77.45
2022-09-28T05:53:02.868Z,76.66
2022-09-28T05:55:33.777Z,76.35
2022-09-28T05:58:05.426Z,76.32
2022-09-28T06:00:36.807Z,76.39
2022-09-28T06:03:09.481Z,76.28
2022-09-28T06:05:43.051Z,75.07
2022-09-28T06:08:13.668Z,73.06
2022-09-28T06:10:43.817Z,71.73
2022-09-28T06:13:14.173Z,70.00
2022-09-28T06:15:46.515Z,67.21
2022-09-28T06:18:17.752Z,65.70
2022-09-28T06:20:50.553Z,64.04
2022-09-28T06:23:20.929Z,61.35
2022-09-28T06:25:52.186Z,59.92
2022-09-28T06:28:22.414Z,59.68
2022-09-28T06:30:53.438Z,57.99
2022-09-28T06:33:25.791Z,56.84
2022-09-28T06:35:58.635Z,57.24
2022-09-28T06:38:29.359Z,55.23
2022-09-28T06:41:00.764Z,54.17
2022-09-28T06:43:34.346Z,53.28
2022-09-28T06:46:05.269Z,53.44
2022-09-28T06:48:36.183Z,53.67
2022-09-28T06:51:09.313Z,52.06
2022-09-28T06:53:39.551Z,52.69
2022-09-28T06:56:11.602Z,51.32
2022-09-28T06:58:42.053Z,49.77
2022-09-28T07:01:12.469Z,49.90
2022-09-28T07:03:43.285Z,49.31
2022-09-28T07:06:16.329Z,50.26
2022-09-28T07:08:53.690Z,51.12
2022-09-28T07:11:29.912Z,49.14
2022-09-28T07:14:00.066Z,48.95
2022-09-28T07:16:55.421Z,49.17
2022-09-28T07:19:20.470Z,48.10
2022-09-28T07:22:03.745Z,47.11
2022-09-28T07:24:35.054Z,47.18
2022-09-28T07:27:05.990Z,46.67
2022-09-28T07:29:36.211Z,46.71
2022-09-28T07:32:06.423Z,45.76
2022-09-28T07:34:43.724Z,45.47
2022-09-28T07:37:18.954Z,46.67
2022-09-28T07:40:01.841Z,45.59
2022-09-28T07:42:34.210Z,46.12
2022-09-28T07:45:04.642Z,46.04
2022-09-28T07:47:35.395Z,45.46
2022-09-28T07:50:06.308Z,45.67
2022-09-28T07:52:39.093Z,46.20
2022-09-28T07:55:10.828Z,45.05
2022-09-28T07:57:40.945Z,44.84
2022-09-28T08:00:12.614Z,46.02
2022-09-28T08:02:42.808Z,44.55
2022-09-28T08:05:13.597Z,43.28
2022-09-28T08:07:48.640Z,44.24
2022-09-28T08:10:19.639Z,45.80
2022-09-28T08:12:49.970Z,45.57
2022-09-28T08:15:20.197Z,45.27
2022-09-28T08:17:51.030Z,45.15
2022-09-28T08:20:33.711Z,43.52
2022-09-28T08:23:09.233Z,44.73
2022-09-28T08:25:39.577Z,45.13
2022-09-28T08:28:10.031Z,42.26
2022-09-28T08:30:40.160Z,42.97
2022-09-28T08:33:10.488Z,43.35
2022-09-28T08:35:41.123Z,41.45
2022-09-28T08:38:14.222Z,44.47
2022-09-28T08:40:53.001Z,42.09
2022-09-28T08:43:48.711Z,42.43
2022-09-28T08:46:27.120Z,41.82
2022-09-28T08:52:03.382Z,40.94
2022-09-28T08:54:51.812Z,38.93
2022-09-28T08:57:25.880Z,39.79
2022-09-28T08:59:58.620Z,40.41
2022-09-28T09:02:33.837Z,40.23
2022-09-28T09:05:11.351Z,39.62
2022-09-28T09:08:08.331Z,39.78
2022-09-28T09:10:53.626Z,41.66
2022-09-28T09:13:44.344Z,43.41
2022-09-28T09:16:25.674Z,44.47
2022-09-28T09:19:05.234Z,44.85
2022-09-28T09:21:43.402Z,44.18
2022-09-28T09:24:28.685Z,45.08
2022-09-28T09:27:09.288Z,45.14
2022-09-28T09:29:54.563Z,45.04
2022-09-28T09:32:46.584Z,43.99
2022-09-28T09:35:31.584Z,44.36
2022-09-28T09:38:16.977Z,48.58
2022-09-28T09:41:01.696Z,47.63
2022-09-28T09:43:56.181Z,46.70
2022-09-28T09:46:33.195Z,45.29
2022-09-28T09:49:08.933Z,44.70
2022-09-28T09:51:45.854Z,42.99
2022-09-28T09:54:23.597Z,42.40
2022-09-28T09:57:00.837Z,43.43
2022-09-28T09:59:39.337Z,44.92
2022-09-28T10:02:22.180Z,44.42
2022-09-28T10:04:55.342Z,43.60
2022-09-28T10:07:29.609Z,44.15
2022-09-28T10:10:03.623Z,45.65
2022-09-28T10:12:33.970Z,44.32
2022-09-28T10:15:10.129Z,42.64
2022-09-28T10:17:40.880Z,42.23
2022-09-28T10:20:15.358Z,40.73
2022-09-28T10:22:46.787Z,41.09
2022-09-28T10:25:18.468Z,41.28
2022-09-28T10:27:52.774Z,39.20
2022-09-28T10:30:28.611Z,40.73
2022-09-28T10:32:59.619Z,41.40
2022-09-28T10:35:32.542Z,41.67
2022-09-28T10:38:04.933Z,40.82
2022-09-28T10:40:43.617Z,40.59
2022-09-28T10:43:24.488Z,41.43
2022-09-28T10:46:09.305Z,42.03
2022-09-28T10:48:52.249Z,43.06
2022-09-28T10:51:22.902Z,40.98
2022-09-28T10:54:02.948Z,42.24
2022-09-28T10:56:40.015Z,41.04
2022-09-28T10:59:26.461Z,41.94
2022-09-28T11:02:03.163Z,41.97
2022-09-28T11:04:39.904Z,42.19
2022-09-28T11:07:20.101Z,41.02
2022-09-28T11:09:52.470Z,42.56
2022-09-28T11:12:25.577Z,42.55
2022-09-28T11:15:01.081Z,43.25
2022-09-28T11:17:38.779Z,43.15
2022-09-28T11:20:35.667Z,42.90
2022-09-28T11:23:21.728Z,44.14
2022-09-28T11:26:01.557Z,43.52
2022-09-28T11:28:35.411Z,43.27
2022-09-28T11:31:07.353Z,42.26
2022-09-28T11:33:43.268Z,43.47
2022-09-28T11:36:26.170Z,42.67
2022-09-28T11:39:09.062Z,42.34
2022-09-28T11:41:51.507Z,42.03
2022-09-28T11:44:39.085Z,42.84
2022-09-28T11:47:36.324Z,43.09
2022-09-28T11:50:22.938Z,43.53
2022-09-28T11:53:02.439Z,42.71
2022-09-28T11:55:38.935Z,42.43
2022-09-28T11:58:16.235Z,42.20
2022-09-28T12:00:52.666Z,42.78
2022-09-28T12:03:33.626Z,43.22
2022-09-28T12:06:10.234Z,43.77
2022-09-28T12:08:46.273Z,42.99
2022-09-28T12:11:21.167Z,43.45
2022-09-28T12:13:57.923Z,43.01
2022-09-28T12:17:01.015Z,43.12
2022-09-28T12:19:29.311Z,43.30
2022-09-28T12:22:08.115Z,43.36
2022-09-28T12:24:43.448Z,42.12
2022-09-28T12:27:20.137Z,42.46
2022-09-28T12:29:56.831Z,43.90
2022-09-28T12:32:35.758Z,42.78
2022-09-28T12:35:13.368Z,42.91
2022-09-28T12:37:59.779Z,43.93
2022-09-28T12:40:40.304Z,42.91
2022-09-28T12:43:36.504Z,42.91
2022-09-28T12:46:33.734Z,43.63
2022-09-28T12:52:31.913Z,42.96
2022-09-28T12:55:33.392Z,43.43
2022-09-28T12:58:16.953Z,44.41
2022-09-28T13:01:00.197Z,44.90
2022-09-28T13:04:05.991Z,45.60
2022-09-28T13:06:55.182Z,45.59
2022-09-28T13:09:28.659Z,45.34
2022-09-28T13:12:22.128Z,45.29
2022-09-28T13:15:17.549Z,43.54
2022-09-28T13:18:01.889Z,43.59
2022-09-28T13:21:02.108Z,43.66
2022-09-28T13:23:37.380Z,44.07
2022-09-28T13:26:17.506Z,44.64
2022-09-28T13:28:54.858Z,44.40
2022-09-28T13:31:34.040Z,44.61
2022-09-28T13:34:13.185Z,44.47
2022-09-28T13:36:47.985Z,45.15
2022-09-28T13:39:40.763Z,45.85
2022-09-28T13:42:12.552Z,45.78
2022-09-28T13:45:09.689Z,46.12
2022-09-28T13:47:58.076Z,46.10
2022-09-28T13:50:36.206Z,46.98
2022-09-28T13:53:21.985Z,47.90
2022-09-28T13:56:02.454Z,48.13
2022-09-28T13:58:38.778Z,48.18
2022-09-28T14:01:16.311Z,46.14
2022-09-28T14:03:57.460Z,46.73
2022-09-28T14:06:29.424Z,47.18
2022-09-28T14:09:33.916Z,46.09
2022-09-28T14:12:05.041Z,47.23
2022-09-28T14:14:50.332Z,47.72
2022-09-28T14:17:57.195Z,47.50
2022-09-28T14:20:30.076Z,47.35
2022-09-28T14:23:22.652Z,46.53
2022-09-28T14:26:09.549Z,45.84
2022-09-28T14:28:54.572Z,46.57
2022-09-28T14:31:30.076Z,47.13
2022-09-28T14:34:11.773Z,47.20
2022-09-28T14:37:02.943Z,47.49
2022-09-28T14:39:48.446Z,47.71
2022-09-28T14:42:22.128Z,48.01
2022-09-28T14:45:23.625Z,47.72
2022-09-28T14:48:16.457Z,47.22
2022-09-28T14:50:50.354Z,48.36
2022-09-28T14:53:23.248Z,48.48
2022-09-28T14:55:57.433Z,48.98
2022-09-28T14:58:32.629Z,49.10
2022-09-28T15:01:06.318Z,48.75
2022-09-28T15:03:41.250Z,49.41
2022-09-28T15:06:19.889Z,49.08
2022-09-28T15:08:50.177Z,49.84
2022-09-28T15:11:24.883Z,49.26
2022-09-28T15:14:10.871Z,48.76
2022-09-28T15:16:41.340Z,48.51
2022-09-28T15:19:26.449Z,48.81
2022-09-28T15:22:02.227Z,48.77
2022-09-28T15:24:34.600Z,48.52
2022-09-28T15:27:06.460Z,47.96
2022-09-28T15:29:36.645Z,48.99
2022-09-28T15:32:06.883Z,49.16
2022-09-28T15:34:51.017Z,49.64
2022-09-28T15:37:26.001Z,50.59
2022-09-28T15:39:57.844Z,50.59
2022-09-28T15:42:28.698Z,51.68
2022-09-28T15:45:06.273Z,52.08
2022-09-28T15:47:40.203Z,52.55
2022-09-28T15:50:24.536Z,52.90
2022-09-28T15:53:01.745Z,53.38
2022-09-28T15:55:34.451Z,53.75
2022-09-28T15:58:10.462Z,54.19
2022-09-28T16:00:41.702Z,54.86
2022-09-28T16:03:25.429Z,54.99
2022-09-28T16:06:09.534Z,56.21
2022-09-28T16:08:49.037Z,56.18
2022-09-28T16:11:24.386Z,56.63
2022-09-28T16:14:01.909Z,57.18
2022-09-28T16:16:35.821Z,57.50
2022-09-28T16:19:06.132Z,57.31
2022-09-28T16:21:47.495Z,57.88
2022-09-28T16:24:30.586Z,58.60
2022-09-28T16:27:03.773Z,59.17
2022-09-28T16:29:40.389Z,59.23
2022-09-28T16:32:38.580Z,59.72
2022-09-28T16:35:21.488Z,60.68
2022-09-28T16:37:59.384Z,61.59
2022-09-28T16:40:33.894Z,62.08
2022-09-28T16:43:07.037Z,62.91
2022-09-28T16:45:38.127Z,63.29
2022-09-28T16:48:08.952Z,64.12
2022-09-28T16:50:40.194Z,64.17
2022-09-28T16:53:28.480Z,64.50
2022-09-28T16:56:04.313Z,64.97
2022-09-28T16:58:39.226Z,65.20
2022-09-28T17:01:11.099Z,65.66
2022-09-28T17:03:42.756Z,65.79
2022-09-28T17:06:15.469Z,66.30
2022-09-28T17:08:46.266Z,66.73
2022-09-28T17:11:24.469Z,66.88
2022-09-28T17:14:00.305Z,67.00
2022-09-28T17:16:57.637Z,67.15
2022-09-28T17:19:28.770Z,67.04
2022-09-28T17:22:01.853Z,67.17
2022-09-28T17:24:34.646Z,67.37
2022-09-28T17:27:07.606Z,67.32
2022-09-28T17:29:40.283Z,68.09
2022-09-28T17:32:19.865Z,68.26
2022-09-28T17:35:00.925Z,67.74
2022-09-28T17:37:40.999Z,67.73
2022-09-28T17:40:21.041Z,68.11
2022-09-28T17:42:56.278Z,67.23
2022-09-28T17:45:28.785Z,67.78
2022-09-28T17:47:59.269Z,67.90
2022-09-28T17:50:32.550Z,66.28
2022-09-28T17:53:06.194Z,65.49
2022-09-28T17:55:37.616Z,65.96
2022-09-28T17:58:19.436Z,65.41
2022-09-28T18:00:52.209Z,64.78
2022-09-28T18:03:23.795Z,64.29
2022-09-28T18:06:04.358Z,64.15
2022-09-28T18:08:34.753Z,64.41
2022-09-28T18:11:05.469Z,63.31
2022-09-28T18:13:38.454Z,61.30
2022-09-28T18:16:09.468Z,61.24
2022-09-28T18:18:40.241Z,60.70
2022-09-28T18:21:12.265Z,60.85
2022-09-28T18:23:42.570Z,60.26
2022-09-28T18:26:19.174Z,60.17
2022-09-28T18:28:52.099Z,60.01
2022-09-28T18:31:22.492Z,60.43
2022-09-28T18:33:53.043Z,60.31
2022-09-28T18:36:23.485Z,60.54
2022-09-28T18:38:55.452Z,60.92
2022-09-28T18:41:25.869Z,60.77
2022-09-28T18:44:00.962Z,60.80
2022-09-28T18:46:36.519Z,62.30
2022-09-28T18:49:07.433Z,61.92
2022-09-28T18:51:37.757Z,62.28
2022-09-28T18:54:10.924Z,61.61
2022-09-28T18:56:41.360Z,61.47
2022-09-28T18:59:15.028Z,61.66
2022-09-28T19:01:45.273Z,62.77
2022-09-28T19:04:15.768Z,62.41
2022-09-28T19:06:50.598Z,62.84
2022-09-28T19:09:26.971Z,63.00
2022-09-28T19:11:57.161Z,62.74
2022-09-28T19:14:32.501Z,63.61
2022-09-28T19:17:02.979Z,63.47
2022-09-28T19:19:33.200Z,64.14
2022-09-28T19:22:03.833Z,63.87
2022-09-28T19:24:33.987Z,64.09
2022-09-28T19:27:06.943Z,64.21
2022-09-28T19:29:39.758Z,63.76
2022-09-28T19:32:12.369Z,64.41
2022-09-28T19:34:42.544Z,64.62
2022-09-28T19:37:12.638Z,64.88
2022-09-28T19:39:42.977Z,64.92
2022-09-28T19:42:13.183Z,65.44
2022-09-28T19:44:46.606Z,66.00
2022-09-28T19:47:21.829Z,66.07
2022-09-28T19:49:52.015Z,66.63
2022-09-28T19:52:22.271Z,66.32
2022-09-28T19:54:57.059Z,66.35
2022-09-28T19:57:31.854Z,66.59
2022-09-28T20:00:05.003Z,67.05
2022-09-28T20:02:36.279Z,67.18
2022-09-28T20:05:06.886Z,67.64
2022-09-28T20:07:40.016Z,68.76
2022-09-28T20:10:12.101Z,68.66
2022-09-28T20:12:42.545Z,68.66
2022-09-28T20:15:17.132Z,69.13
2022-09-28T20:17:47.345Z,69.10
2022-09-28T20:20:18.404Z,69.79
2022-09-28T20:22:48.551Z,69.59
2022-09-28T20:25:18.903Z,69.33
2022-09-28T20:27:51.301Z,69.84
2022-09-28T20:30:24.457Z,70.60
2022-09-28T20:32:54.546Z,70.68
2022-09-28T20:35:32.606Z,70.70
2022-09-28T20:38:08.175Z,71.42
2022-09-28T20:40:40.347Z,71.76
2022-09-28T20:43:10.920Z,72.18
2022-09-28T20:45:44.119Z,72.27
2022-09-28T20:48:14.318Z,72.75
2022-09-28T20:50:45.276Z,72.81
2022-09-28T20:53:15.446Z,73.09
2022-09-28T20:55:45.561Z,73.48
2022-09-28T20:58:15.767Z,73.44
2022-09-28T21:00:48.575Z,74.22
2022-09-28T21:03:20.908Z,73.96
2022-09-28T21:05:53.963Z,73.84
2022-09-28T21:08:25.358Z,73.99
2022-09-28T21:10:55.921Z,74.84
2022-09-28T21:13:26.691Z,74.96
2022-09-28T21:16:04.734Z,74.35
2022-09-28T21:18:35.011Z,74.85
2022-09-28T21:21:08.050Z,74.89
2022-09-28T21:23:38.848Z,74.98
2022-09-28T21:26:11.258Z,75.83
2022-09-28T21:28:42.416Z,76.28
2022-09-28T21:31:15.782Z,76.50
2022-09-28T21:33:46.054Z,76.67
2022-09-28T21:36:16.206Z,76.45
2022-09-28T21:38:46.781Z,76.66
2022-09-28T21:41:16.967Z,77.24
2022-09-28T21:43:48.377Z,77.87
2022-09-28T21:46:21.516Z,77.76
2022-09-28T21:48:55.775Z,78.69
2022-09-28T21:51:25.991Z,78.61
2022-09-28T21:53:56.209Z,78.62
2022-09-28T21:56:26.947Z,78.59
2022-09-28T21:58:57.095Z,78.50
2022-09-28T22:01:30.006Z,78.47
2022-09-28T22:04:00.951Z,79.00
2022-09-28T22:06:31.171Z,78.84
2022-09-28T22:09:01.367Z,79.03
2022-09-28T22:11:31.824Z,78.81
2022-09-28T22:14:03.277Z,79.25
2022-09-28T22:16:36.036Z,78.80
2022-09-28T22:19:06.237Z,78.92
2022-09-28T22:21:37.157Z,79.01
2022-09-28T22:24:09.338Z,79.09
2022-09-28T22:26:40.869Z,79.09
2022-09-28T22:29:12.842Z,79.10
2022-09-28T22:31:45.651Z,79.25
2022-09-28T22:34:15.775Z,79.65
2022-09-28T22:36:45.991Z,79.74
2022-09-28T22:39:16.262Z,80.40
2022-09-28T22:41:46.400Z,79.71
2022-09-28T22:44:16.627Z,80.07
2022-09-28T22:46:49.772Z,80.07
2022-09-28T22:49:20.232Z,80.21
2022-09-28T22:51:50.410Z,80.03
2022-09-28T22:54:21.686Z,80.38
2022-09-28T22:56:51.871Z,80.86
2022-09-28T22:59:22.011Z,80.37
2022-09-28T23:01:54.803Z,80.70
2022-09-28T23:04:24.968Z,81.00
2022-09-28T23:06:55.126Z,80.64
2022-09-28T23:09:25.349Z,81.11
2022-09-28T23:11:55.491Z,80.65
2022-09-28T23:14:25.565Z,81.01
2022-09-28T23:16:58.311Z,80.59
2022-09-28T23:19:28.612Z,80.79
2022-09-28T23:21:59.441Z,81.39
2022-09-28T23:24:29.526Z,81.14
2022-09-28T23:26:59.723Z,80.87
2022-09-28T23:29:30.005Z,80.75
2022-09-28T23:32:02.859Z,80.86
2022-09-28T23:34:32.947Z,81.19
2022-09-28T23:37:03.109Z,80.89
2022-09-28T23:39:33.368Z,80.32
2022-09-28T23:42:04.099Z,80.43
2022-09-28T23:44:34.242Z,79.68
2022-09-28T23:47:07.010Z,79.86
2022-09-28T23:49:37.336Z,78.94
2022-09-28T23:52:07.522Z,78.68
2022-09-28T23:54:37.646Z,78.88
2022-09-28T23:57:07.839Z,78.85
2022-09-28T23:59:37.978Z,78.73
